Nor Easter — V7HF2 — position and weather

sailwx.info

Track history (hours):
 
Tides and Currents Weather Stations Pressure Air Temp Water Temp Dewpoint Dewpoint Depression Visibility Wind Speed Wind Dir Waves Ship Positions

Nor Easter

Last reported at 2018-Apr-04 15:45 UTC. Time now 2018-Apr-23 09:49 UTC.
Position S 20°08' E 113°42'.
Warning: this ship's position is 18 days out of date.

Length 181 m; draft 8.7 m.

Type: Ship. MMSI: 538002219.

Date/timePositionNaut miles runAvg speedWind from/ knotsBaromVisibWave heightAir tempDewpointWater temp
2018-Apr-04 15:45S 20°08' E 113°42'312.7
2018-Apr-04 15:30S 20°05' E 113°42'8612.3
2018-Apr-04 08:32S 18°40' E 113°58'011.8
2018-Apr-04 08:30S 18°40' E 113°58'2612.0
2018-Apr-04 06:22S 18°14' E 114°01'612.0
2018-Apr-04 05:54S 18°09' E 114°01'511.9
2018-Apr-04 05:29S 18°04' E 114°01'611.9
2018-Apr-04 04:57S 17°57' E 114°01'811.6
2018-Apr-04 04:16S 17°49' E 114°01'311.7
2018-Apr-04 04:00S 17°46' E 114°01'611.4
2018-Apr-04 03:29S 17°40' E 114°01'8211.9
2018-Apr-03 20:35S 16°20' E 114°18'112.3
2018-Apr-03 20:29S 16°18' E 114°18'2412.4
2018-Apr-03 18:33S 15°55' E 114°22'312.4
2018-Apr-03 18:21S 15°52' E 114°23'412.0
2018-Apr-03 17:59S 15°48' E 114°23'  
2018-Mar-30 04:33N 01°14' E 104°02'112.3
2018-Mar-30 04:28N 01°14' E 104°01'4 8.5
2018-Mar-30 03:58N 01°15' E 103°56'2 3.5
2018-Mar-30 03:30N 01°16' E 103°57'1 0.1
2018-Mar-29 21:27N 01°17' E 103°56'0 0.2
2018-Mar-29 20:18N 01°17' E 103°56'0 0.2
2018-Mar-29 19:15N 01°17' E 103°56'0 0.0
2018-Mar-29 18:45N 01°17' E 103°56'0 0.0
2018-Mar-29 18:03N 01°17' E 103°56'0 0.0
2018-Mar-29 17:57N 01°17' E 103°56'0 0.0
2018-Mar-29 11:09N 01°17' E 103°56'0 0.0
2018-Mar-29 10:42N 01°17' E 103°56'0 0.1
2018-Mar-29 10:28N 01°17' E 103°56'1 2.9
2018-Mar-29 09:59N 01°16' E 103°57'1 2.8
2018-Mar-29 09:30N 01°15' E 103°57'2 3.6
2018-Mar-29 09:00N 01°14' E 103°56'2 4.7
2018-Mar-29 08:30N 01°13' E 103°54'3 6.9
2018-Mar-29 08:00N 01°11' E 103°51'3 5.0
2018-Mar-29 07:30N 01°10' E 103°48'3 5.7
2018-Mar-29 07:00N 01°08' E 103°46'3 6.3
2018-Mar-29 06:30N 01°06' E 103°44'3 6.5
2018-Mar-29 06:00N 01°04' E 103°41'3 6.8
2018-Mar-29 05:30N 01°03' E 103°38'4 7.2
2018-Mar-29 04:59N 01°05' E 103°35'4 7.7
2018-Mar-29 04:30N 01°07' E 103°31'3 6.6
2018-Mar-29 04:00N 01°09' E 103°28'4 7.9
2018-Mar-29 03:30N 01°11' E 103°25'611.2
2018-Mar-29 02:57N 01°15' E 103°20'  
Track history (hours):
 
Tides and Currents Weather Stations Pressure Air Temp Water Temp Dewpoint Dewpoint Depression Visibility Wind Speed Wind Dir Waves Ship Positions

Nor Easter

Last reported at 2018-Apr-04 15:45 UTC. Time now 2018-Apr-23 09:49 UTC.
Position S 20°08' E 113°42'.
Warning: this ship's position is 18 days out of date.

Length 181 m; draft 8.7 m.

Type: Ship. MMSI: 538002219.

Date/timePositionNaut miles runAvg speedWind from/ knotsBaromVisibWave heightAir tempDewpointWater temp
2018-Apr-04 15:45S 20°08' E 113°42'312.7
2018-Apr-04 15:30S 20°05' E 113°42'8612.3
2018-Apr-04 08:32S 18°40' E 113°58'011.8
2018-Apr-04 08:30S 18°40' E 113°58'2612.0
2018-Apr-04 06:22S 18°14' E 114°01'612.0
2018-Apr-04 05:54S 18°09' E 114°01'511.9
2018-Apr-04 05:29S 18°04' E 114°01'611.9
2018-Apr-04 04:57S 17°57' E 114°01'811.6
2018-Apr-04 04:16S 17°49' E 114°01'311.7
2018-Apr-04 04:00S 17°46' E 114°01'611.4
2018-Apr-04 03:29S 17°40' E 114°01'8211.9
2018-Apr-03 20:35S 16°20' E 114°18'112.3
2018-Apr-03 20:29S 16°18' E 114°18'2412.4
2018-Apr-03 18:33S 15°55' E 114°22'312.4
2018-Apr-03 18:21S 15°52' E 114°23'412.0
2018-Apr-03 17:59S 15°48' E 114°23'  
2018-Mar-30 04:33N 01°14' E 104°02'112.3
2018-Mar-30 04:28N 01°14' E 104°01'4 8.5
2018-Mar-30 03:58N 01°15' E 103°56'2 3.5
2018-Mar-30 03:30N 01°16' E 103°57'1 0.1
2018-Mar-29 21:27N 01°17' E 103°56'0 0.2
2018-Mar-29 20:18N 01°17' E 103°56'0 0.2
2018-Mar-29 19:15N 01°17' E 103°56'0 0.0
2018-Mar-29 18:45N 01°17' E 103°56'0 0.0
2018-Mar-29 18:03N 01°17' E 103°56'0 0.0
2018-Mar-29 17:57N 01°17' E 103°56'0 0.0
2018-Mar-29 11:09N 01°17' E 103°56'0 0.0
2018-Mar-29 10:42N 01°17' E 103°56'0 0.1
2018-Mar-29 10:28N 01°17' E 103°56'1 2.9
2018-Mar-29 09:59N 01°16' E 103°57'1 2.8
2018-Mar-29 09:30N 01°15' E 103°57'2 3.6
2018-Mar-29 09:00N 01°14' E 103°56'2 4.7
2018-Mar-29 08:30N 01°13' E 103°54'3 6.9
2018-Mar-29 08:00N 01°11' E 103°51'3 5.0
2018-Mar-29 07:30N 01°10' E 103°48'3 5.7
2018-Mar-29 07:00N 01°08' E 103°46'3 6.3
2018-Mar-29 06:30N 01°06' E 103°44'3 6.5
2018-Mar-29 06:00N 01°04' E 103°41'3 6.8
2018-Mar-29 05:30N 01°03' E 103°38'4 7.2
2018-Mar-29 04:59N 01°05' E 103°35'4 7.7
2018-Mar-29 04:30N 01°07' E 103°31'3 6.6
2018-Mar-29 04:00N 01°09' E 103°28'4 7.9
2018-Mar-29 03:30N 01°11' E 103°25'611.2
2018-Mar-29 02:57N 01°15' E 103°20'  

Dump ship's entire track history